createdAt,value
2019-05-28T00:00:13.592Z,6.53
2019-05-28T00:02:42.249Z,5.13
2019-05-28T00:05:10.977Z,4.53
2019-05-28T00:07:39.701Z,5.23
2019-05-28T00:10:09.083Z,4.60
2019-05-28T00:12:38.001Z,4.83
2019-05-28T00:15:07.418Z,4.00
2019-05-28T00:17:36.074Z,4.50
2019-05-28T00:20:07.865Z,4.20
2019-05-28T00:22:36.509Z,4.17
2019-05-28T00:25:06.722Z,4.60
2019-05-28T00:27:35.464Z,5.03
2019-05-28T00:30:19.244Z,5.17
2019-05-28T00:32:39.111Z,6.40
2019-05-28T00:35:08.250Z,6.37
2019-05-28T00:37:36.930Z,7.47
2019-05-28T00:40:06.219Z,7.20
2019-05-28T00:42:34.898Z,7.53
2019-05-28T00:45:04.153Z,7.90
2019-05-28T00:47:32.664Z,8.17
2019-05-28T00:50:01.381Z,7.97
2019-05-28T00:52:30.314Z,9.10
2019-05-28T00:54:58.938Z,9.53
2019-05-28T00:57:27.980Z,8.63
2019-05-28T00:59:57.293Z,9.77
2019-05-28T01:02:26.215Z,9.00
2019-05-28T01:04:54.816Z,9.23
2019-05-28T01:07:23.458Z,6.33
2019-05-28T01:09:52.190Z,6.30
2019-05-28T01:12:20.855Z,5.50
2019-05-28T01:14:49.398Z,4.43
2019-05-28T01:17:17.962Z,4.43
2019-05-28T01:19:46.823Z,3.70
2019-05-28T01:22:15.454Z,3.33
2019-05-28T01:24:44.050Z,2.70
2019-05-28T01:27:12.696Z,2.90
2019-05-28T01:29:41.290Z,3.90
2019-05-28T01:32:09.925Z,3.50
2019-05-28T01:34:39.006Z,3.40
2019-05-28T01:37:07.554Z,3.37
2019-05-28T01:39:36.199Z,3.13
2019-05-28T01:42:04.933Z,3.30
2019-05-28T01:44:33.508Z,2.50
2019-05-28T01:47:02.093Z,2.70
2019-05-28T01:49:30.662Z,2.83
2019-05-28T01:51:59.263Z,2.70
2019-05-28T01:54:27.864Z,2.70
2019-05-28T01:56:56.698Z,3.07
2019-05-28T01:59:25.286Z,3.20
2019-05-28T02:01:54.007Z,2.53
2019-05-28T02:04:22.574Z,2.80
2019-05-28T02:06:51.226Z,2.10
2019-05-28T02:09:19.849Z,2.30
2019-05-28T02:11:48.438Z,2.30
2019-05-28T02:14:17.012Z,2.87
2019-05-28T02:16:45.588Z,2.53
2019-05-28T02:19:14.152Z,2.53
2019-05-28T02:21:42.760Z,3.40
2019-05-28T02:24:11.328Z,3.10
2019-05-28T02:26:40.046Z,2.20
2019-05-28T02:29:08.606Z,2.70
2019-05-28T02:31:37.245Z,2.63
2019-05-28T02:34:05.830Z,4.50
2019-05-28T02:36:34.472Z,3.00
2019-05-28T02:39:03.122Z,3.23
2019-05-28T02:41:31.968Z,2.97
2019-05-28T02:44:00.552Z,2.83
2019-05-28T02:46:29.114Z,3.03
2019-05-28T02:48:58.054Z,3.20
2019-05-28T02:51:26.902Z,3.10
2019-05-28T02:53:55.913Z,2.90
2019-05-28T02:56:26.444Z,2.90
2019-05-28T02:58:57.529Z,2.50
2019-05-28T03:01:42.757Z,3.03
2019-05-28T03:03:57.881Z,2.40
2019-05-28T03:06:28.393Z,2.93
2019-05-28T03:08:57.334Z,2.53
2019-05-28T03:11:26.171Z,2.60
2019-05-28T03:13:55.300Z,3.00
2019-05-28T03:16:27.259Z,3.00
2019-05-28T03:18:58.058Z,2.90
2019-05-28T03:21:27.363Z,2.90
2019-05-28T03:23:59.162Z,2.83
2019-05-28T03:26:28.187Z,3.37
2019-05-28T03:28:57.349Z,3.17
2019-05-28T03:31:25.962Z,3.37
2019-05-28T03:33:54.724Z,3.40
2019-05-28T03:36:27.073Z,3.67
2019-05-28T03:38:57.482Z,3.50
2019-05-28T03:41:26.056Z,4.73
2019-05-28T03:43:54.924Z,3.73
2019-05-28T03:46:23.805Z,4.50
2019-05-28T03:48:52.363Z,4.00
2019-05-28T03:51:21.010Z,4.40
2019-05-28T03:53:49.589Z,5.30
2019-05-28T03:56:18.689Z,5.10
2019-05-28T03:58:47.255Z,5.77
2019-05-28T04:01:15.921Z,5.17
2019-05-28T04:03:44.567Z,5.50
2019-05-28T04:06:13.176Z,5.80
2019-05-28T04:08:42.119Z,6.17
2019-05-28T04:11:10.724Z,7.13
2019-05-28T04:13:39.302Z,7.80
2019-05-28T04:16:07.890Z,7.03
2019-05-28T04:18:36.523Z,7.77
2019-05-28T04:21:05.264Z,8.83
2019-05-28T04:23:33.857Z,7.90
2019-05-28T04:26:02.579Z,8.60
2019-05-28T04:28:31.507Z,8.93
2019-05-28T04:31:00.098Z,8.90
2019-05-28T04:33:28.656Z,8.30
2019-05-28T04:35:57.273Z,8.43
2019-05-28T04:38:25.803Z,8.10
2019-05-28T04:40:54.390Z,9.20
2019-05-28T04:43:22.959Z,8.87
2019-05-28T04:45:51.547Z,9.60
2019-05-28T04:48:20.209Z,9.83
2019-05-28T04:50:48.800Z,10.30
2019-05-28T04:53:17.454Z,9.70
2019-05-28T04:55:46.001Z,9.87
2019-05-28T04:58:14.581Z,9.87
2019-05-28T05:00:43.208Z,8.63
2019-05-28T05:03:11.794Z,9.43
2019-05-28T05:05:40.661Z,8.90
2019-05-28T05:08:09.237Z,9.20
2019-05-28T05:10:37.786Z,8.33
2019-05-28T05:13:06.373Z,8.00
2019-05-28T05:15:35.344Z,8.60
2019-05-28T05:18:04.313Z,6.80
2019-05-28T05:20:33.347Z,6.17
2019-05-28T05:23:01.957Z,6.60
2019-05-28T05:25:30.683Z,5.40
2019-05-28T05:27:59.605Z,6.23
2019-05-28T05:30:28.211Z,5.50
2019-05-28T05:32:57.099Z,4.57
2019-05-28T05:35:26.164Z,5.17
2019-05-28T05:37:54.758Z,4.87
2019-05-28T05:40:23.989Z,4.03
2019-05-28T05:42:52.639Z,3.47
2019-05-28T05:45:21.351Z,3.83
2019-05-28T05:47:49.979Z,3.70
2019-05-28T05:50:18.717Z,3.37
2019-05-28T05:52:47.290Z,3.27
2019-05-28T05:55:16.319Z,2.63
2019-05-28T05:57:44.954Z,2.60
2019-05-28T06:00:15.365Z,2.57
2019-05-28T06:02:43.990Z,2.57
2019-05-28T06:05:13.016Z,2.40
2019-05-28T06:07:41.600Z,2.37
2019-05-28T06:10:10.387Z,1.60
2019-05-28T06:12:38.939Z,1.87
2019-05-28T06:15:08.368Z,2.00
2019-05-28T06:17:37.022Z,2.60
2019-05-28T06:20:07.669Z,2.00
2019-05-28T06:22:36.731Z,1.77
2019-05-28T06:25:06.466Z,1.30
2019-05-28T06:27:36.291Z,1.20
2019-05-28T06:30:08.067Z,1.10
2019-05-28T06:32:38.293Z,1.00
2019-05-28T06:35:07.760Z,0.80
2019-05-28T06:37:36.361Z,1.00
2019-05-28T06:40:07.397Z,0.60
2019-05-28T06:42:39.264Z,0.90
2019-05-28T06:45:08.333Z,1.10
2019-05-28T06:47:37.028Z,1.73
2019-05-28T06:50:12.143Z,2.53
2019-05-28T06:52:41.208Z,2.10
2019-05-28T06:55:11.118Z,1.97
2019-05-28T06:57:39.702Z,2.43
2019-05-28T07:00:09.955Z,1.90
2019-05-28T07:02:38.494Z,2.27
2019-05-28T07:05:07.262Z,2.30
2019-05-28T07:07:35.922Z,2.73
2019-05-28T07:10:05.946Z,2.77
2019-05-28T07:12:34.588Z,2.33
2019-05-28T07:15:03.639Z,2.70
2019-05-28T07:17:32.336Z,1.97
2019-05-28T07:20:01.250Z,1.73
2019-05-28T07:22:29.951Z,1.60
2019-05-28T07:24:58.532Z,1.20
2019-05-28T07:27:27.094Z,1.10
2019-05-28T07:29:55.764Z,1.20
2019-05-28T07:32:24.320Z,1.90
2019-05-28T07:34:52.979Z,1.70
2019-05-28T07:37:21.595Z,2.10
2019-05-28T07:39:50.184Z,1.73
2019-05-28T07:42:31.846Z,2.20
2019-05-28T07:44:48.972Z,2.10
2019-05-28T07:47:17.561Z,2.20
2019-05-28T07:49:46.564Z,1.87
2019-05-28T07:52:15.447Z,1.77
2019-05-28T07:54:44.003Z,1.83
2019-05-28T07:57:12.941Z,1.40
2019-05-28T07:59:41.836Z,1.60
2019-05-28T08:02:10.468Z,1.77
2019-05-28T08:04:47.321Z,1.50
2019-05-28T08:07:09.360Z,1.80
2019-05-28T08:09:38.026Z,1.10
2019-05-28T08:12:06.747Z,1.40
2019-05-28T08:14:35.380Z,1.63
2019-05-28T08:17:04.045Z,1.50
2019-05-28T08:19:32.723Z,1.40
2019-05-28T08:22:01.999Z,1.20
2019-05-28T08:24:30.551Z,1.30
2019-05-28T08:26:59.473Z,1.50
2019-05-28T08:29:28.041Z,0.90
2019-05-28T08:31:56.629Z,1.00
2019-05-28T08:34:25.576Z,1.30
2019-05-28T08:37:05.060Z,1.57
2019-05-28T08:39:24.433Z,1.17
2019-05-28T08:41:53.059Z,0.93
2019-05-28T08:44:21.704Z,1.33
2019-05-28T08:46:51.686Z,1.30
2019-05-28T08:49:23.822Z,1.17
2019-05-28T08:51:50.523Z,1.13
2019-05-28T08:54:19.097Z,0.77
2019-05-28T08:56:48.057Z,1.00
2019-05-28T08:59:16.610Z,1.20
2019-05-28T09:01:45.205Z,0.93
2019-05-28T09:04:13.855Z,0.80
2019-05-28T09:06:42.463Z,0.90
2019-05-28T09:09:11.524Z,0.97
2019-05-28T09:11:40.163Z,1.00
2019-05-28T09:14:08.750Z,0.53
2019-05-28T09:16:37.401Z,0.67
2019-05-28T09:19:06.110Z,0.67
2019-05-28T09:21:34.688Z,0.60
2019-05-28T09:24:03.403Z,0.43
2019-05-28T09:26:32.114Z,0.30
2019-05-28T09:29:00.785Z,0.10
2019-05-28T09:31:29.427Z,0.20
2019-05-28T09:33:58.013Z,0.23
2019-05-28T09:36:27.101Z,0.20
2019-05-28T09:38:55.683Z,0.43
2019-05-28T09:41:24.400Z,0.60
2019-05-28T09:43:53.376Z,1.20
2019-05-28T09:46:21.952Z,0.60
2019-05-28T09:48:50.519Z,0.43
2019-05-28T09:51:19.186Z,0.80
2019-05-28T09:53:47.741Z,0.30
2019-05-28T09:56:16.329Z,0.37
2019-05-28T09:58:44.943Z,0.27
2019-05-28T10:01:13.782Z,0.70
2019-05-28T10:03:42.798Z,1.00
2019-05-28T10:06:16.888Z,0.83
2019-05-28T10:08:41.627Z,0.97
2019-05-28T10:11:10.262Z,0.87
2019-05-28T10:13:41.466Z,0.80
2019-05-28T10:16:09.467Z,0.83
2019-05-28T10:18:38.003Z,0.70
2019-05-28T10:21:17.537Z,1.00
2019-05-28T10:23:36.871Z,1.53
2019-05-28T10:26:05.843Z,1.90
2019-05-28T10:28:34.857Z,1.30
2019-05-28T10:31:03.439Z,0.60
2019-05-28T10:33:31.992Z,0.60
2019-05-28T10:36:00.579Z,0.40
2019-05-28T10:38:29.148Z,0.50
2019-05-28T10:40:57.823Z,0.47
2019-05-28T10:43:26.457Z,0.50
2019-05-28T10:45:55.083Z,0.80
2019-05-28T10:48:23.605Z,1.10
2019-05-28T10:50:52.197Z,0.83
2019-05-28T10:53:20.824Z,1.00
2019-05-28T10:55:49.429Z,1.37
2019-05-28T10:58:18.143Z,1.30
2019-05-28T11:00:46.741Z,1.43
2019-05-28T11:03:15.298Z,1.57
2019-05-28T11:05:44.273Z,1.53
2019-05-28T11:08:12.827Z,1.30
2019-05-28T11:10:41.403Z,1.07
2019-05-28T11:13:10.439Z,1.20
2019-05-28T11:15:39.053Z,1.27
2019-05-28T11:18:07.630Z,1.10
2019-05-28T11:20:36.346Z,1.60
2019-05-28T11:23:05.072Z,1.67
2019-05-28T11:25:33.749Z,1.67
2019-05-28T11:28:02.435Z,1.60
2019-05-28T11:30:31.125Z,1.50
2019-05-28T11:32:59.780Z,1.80
2019-05-28T11:35:28.724Z,1.53
2019-05-28T11:37:57.652Z,1.37
2019-05-28T11:40:29.795Z,2.00
2019-05-28T11:42:56.617Z,1.60
2019-05-28T11:45:25.334Z,1.80
2019-05-28T11:47:53.969Z,1.80
2019-05-28T11:50:22.688Z,1.80
2019-05-28T11:52:51.264Z,1.83
2019-05-28T11:55:21.616Z,1.57
2019-05-28T11:57:50.136Z,1.80
2019-05-28T12:00:19.733Z,2.50
2019-05-28T12:02:48.439Z,2.43
2019-05-28T12:05:19.053Z,2.63
2019-05-28T12:07:51.357Z,2.57
2019-05-28T12:10:18.582Z,2.37
2019-05-28T12:12:47.194Z,2.80
2019-05-28T12:15:17.719Z,1.87
2019-05-28T12:17:47.093Z,2.10
2019-05-28T12:20:18.006Z,2.40
2019-05-28T12:22:46.745Z,1.97
2019-05-28T12:25:16.663Z,2.63
2019-05-28T12:27:45.234Z,2.73
2019-05-28T12:30:18.529Z,2.80
2019-05-28T12:32:46.388Z,2.53
2019-05-28T12:35:27.303Z,2.50
2019-05-28T12:37:49.797Z,2.30
2019-05-28T12:40:18.382Z,2.17
2019-05-28T12:42:46.998Z,2.00
2019-05-28T12:45:16.823Z,2.53
2019-05-28T12:48:04.430Z,3.27
2019-05-28T12:50:20.292Z,3.33
2019-05-28T12:52:47.897Z,2.53
2019-05-28T12:55:17.950Z,3.63
2019-05-28T12:57:46.604Z,2.70
2019-05-28T13:00:16.028Z,2.93
2019-05-28T13:02:44.680Z,4.53
2019-05-28T13:05:18.777Z,3.93
2019-05-28T13:08:06.353Z,3.70
2019-05-28T13:10:18.712Z,3.23
2019-05-28T13:12:47.454Z,3.37
2019-05-28T13:15:16.140Z,3.03
2019-05-28T13:17:44.719Z,3.40
2019-05-28T13:20:13.736Z,4.13
2019-05-28T13:22:42.533Z,2.03
2019-05-28T13:25:11.546Z,2.07
2019-05-28T13:27:40.478Z,3.33
2019-05-28T13:30:13.772Z,3.23
2019-05-28T13:32:42.999Z,2.10
2019-05-28T13:35:13.020Z,1.10
2019-05-28T13:37:41.628Z,0.70
2019-05-28T13:40:11.670Z,0.87
2019-05-28T13:42:40.574Z,0.90
2019-05-28T13:45:11.237Z,1.03
2019-05-28T13:47:39.791Z,1.20
2019-05-28T13:50:11.834Z,1.13
2019-05-28T13:52:40.948Z,0.97
2019-05-28T13:55:10.868Z,0.90
2019-05-28T13:57:40.020Z,0.80
2019-05-28T14:00:11.681Z,0.97
2019-05-28T14:02:45.706Z,0.80
2019-05-28T14:05:12.000Z,0.73
2019-05-28T14:07:40.686Z,0.80
2019-05-28T14:10:10.121Z,0.80
2019-05-28T14:12:38.816Z,1.40
2019-05-28T14:15:08.338Z,0.80
2019-05-28T14:17:36.991Z,1.20
2019-05-28T14:20:10.589Z,0.90
2019-05-28T14:22:39.248Z,0.67
2019-05-28T14:25:09.549Z,0.50
2019-05-28T14:27:38.206Z,0.90
2019-05-28T14:30:09.175Z,0.83
2019-05-28T14:32:38.323Z,0.70
2019-05-28T14:35:07.248Z,0.77
2019-05-28T14:37:35.937Z,0.80
2019-05-28T14:40:06.315Z,0.70
2019-05-28T14:42:35.044Z,1.30
2019-05-28T14:45:05.153Z,0.90
2019-05-28T14:47:33.781Z,0.97
2019-05-28T14:50:02.392Z,0.73
2019-05-28T14:52:31.051Z,0.70
2019-05-28T14:54:59.622Z,1.00
2019-05-28T14:57:28.220Z,0.70
2019-05-28T14:59:56.785Z,0.80
2019-05-28T15:02:25.681Z,0.80
2019-05-28T15:04:54.269Z,0.90
2019-05-28T15:07:22.835Z,1.12
2019-05-28T15:09:51.414Z,1.40
2019-05-28T15:12:19.996Z,1.70
2019-05-28T15:14:48.574Z,1.97
2019-05-28T15:17:17.174Z,1.47
2019-05-28T15:19:45.863Z,1.40
2019-05-28T15:22:14.448Z,2.13
2019-05-28T15:24:43.083Z,2.07
2019-05-28T15:27:11.774Z,2.70
2019-05-28T15:29:40.360Z,2.10
2019-05-28T15:32:08.932Z,1.33
2019-05-28T15:34:37.491Z,1.97
2019-05-28T15:37:06.121Z,1.60
2019-05-28T15:39:39.669Z,1.23
2019-05-28T15:42:05.368Z,1.43
2019-05-28T15:44:33.922Z,1.70
2019-05-28T15:47:02.500Z,2.50
2019-05-28T15:49:31.058Z,3.00
2019-05-28T15:52:07.814Z,2.83
2019-05-28T15:54:29.933Z,2.50
2019-05-28T15:56:58.568Z,2.50
2019-05-28T15:59:27.240Z,1.60
2019-05-28T16:01:55.783Z,1.50
2019-05-28T16:04:24.353Z,0.80
2019-05-28T16:06:52.910Z,0.90
2019-05-28T16:09:21.506Z,0.80
2019-05-28T16:11:50.068Z,0.70
2019-05-28T16:14:18.731Z,0.40
2019-05-28T16:16:47.294Z,0.50
2019-05-28T16:19:15.889Z,0.40
2019-05-28T16:21:44.446Z,0.50
2019-05-28T16:24:13.017Z,0.40
2019-05-28T16:26:41.577Z,0.60
2019-05-28T16:29:10.263Z,0.77
2019-05-28T16:31:38.806Z,0.70
2019-05-28T16:34:07.466Z,0.70
2019-05-28T16:36:36.023Z,0.90
2019-05-28T16:39:07.747Z,0.80
2019-05-28T16:41:36.666Z,1.30
2019-05-28T16:44:06.495Z,1.10
2019-05-28T16:46:35.121Z,0.90
2019-05-28T16:49:03.682Z,1.00
2019-05-28T16:51:32.293Z,1.20
2019-05-28T16:54:17.819Z,0.90
2019-05-28T16:56:31.117Z,1.03
2019-05-28T16:59:00.070Z,1.20
2019-05-28T17:01:28.655Z,1.23
2019-05-28T17:03:57.194Z,1.30
2019-05-28T17:06:25.919Z,0.97
2019-05-28T17:08:54.484Z,1.40
2019-05-28T17:11:27.318Z,1.33
2019-05-28T17:13:53.364Z,1.07
2019-05-28T17:16:21.954Z,1.10
2019-05-28T17:18:50.526Z,1.07
2019-05-28T17:21:19.193Z,1.10
2019-05-28T17:23:47.768Z,1.10
2019-05-28T17:26:16.533Z,0.90
2019-05-28T17:28:45.445Z,0.90
2019-05-28T17:31:14.013Z,0.80
2019-05-28T17:33:42.948Z,0.67
2019-05-28T17:36:11.501Z,0.87
2019-05-28T17:38:40.127Z,1.10
2019-05-28T17:41:08.692Z,1.50
2019-05-28T17:43:37.266Z,1.70
2019-05-28T17:46:05.925Z,1.30
2019-05-28T17:48:34.788Z,1.53
2019-05-28T17:51:03.337Z,1.50
2019-05-28T17:53:32.012Z,1.67
2019-05-28T17:56:00.563Z,1.30
2019-05-28T17:58:31.139Z,1.13
2019-05-28T18:00:59.777Z,1.20
2019-05-28T18:03:28.361Z,1.30
2019-05-28T18:05:57.023Z,1.30
2019-05-28T18:08:29.225Z,1.70
2019-05-28T18:11:04.510Z,1.40
2019-05-28T18:13:28.488Z,1.80
2019-05-28T18:15:56.350Z,1.83
2019-05-28T18:18:24.916Z,1.80
2019-05-28T18:20:53.563Z,1.00
2019-05-28T18:23:22.139Z,0.90
2019-05-28T18:25:50.709Z,1.20
2019-05-28T18:28:19.347Z,1.13
2019-05-28T18:30:47.928Z,1.20
2019-05-28T18:33:16.520Z,1.43
2019-05-28T18:35:45.155Z,1.20
2019-05-28T18:38:13.710Z,1.37
2019-05-28T18:40:42.282Z,1.53
2019-05-28T18:43:10.860Z,1.30
2019-05-28T18:45:39.550Z,1.07
2019-05-28T18:48:08.164Z,1.70
2019-05-28T18:50:36.743Z,1.60
2019-05-28T18:53:05.736Z,1.50
2019-05-28T18:55:34.486Z,1.40
2019-05-28T18:58:03.270Z,1.40
2019-05-28T19:00:31.861Z,1.53
2019-05-28T19:03:00.452Z,1.60
2019-05-28T19:05:29.397Z,2.00
2019-05-28T19:07:57.978Z,1.80
2019-05-28T19:10:26.602Z,1.80
2019-05-28T19:12:58.144Z,1.63
2019-05-28T19:15:25.631Z,1.67
2019-05-28T19:17:54.241Z,2.03
2019-05-28T19:20:23.161Z,2.60
2019-05-28T19:22:52.158Z,2.50
2019-05-28T19:25:20.894Z,2.27
2019-05-28T19:27:49.510Z,2.40
2019-05-28T19:30:21.411Z,2.60
2019-05-28T19:32:50.468Z,2.80
2019-05-28T19:35:19.086Z,2.60
2019-05-28T19:37:48.128Z,3.10
2019-05-28T19:40:20.051Z,2.70
2019-05-28T19:42:48.627Z,2.73
2019-05-28T19:45:17.276Z,3.00
2019-05-28T19:47:45.784Z,3.07
2019-05-28T19:50:14.539Z,4.23
2019-05-28T19:52:43.090Z,3.77
2019-05-28T19:55:12.213Z,3.60
2019-05-28T19:57:40.790Z,3.63
2019-05-28T20:00:10.130Z,3.27
2019-05-28T20:02:38.696Z,4.30
2019-05-28T20:05:08.413Z,3.97
2019-05-28T20:07:37.020Z,4.03
2019-05-28T20:10:07.008Z,4.47
2019-05-28T20:12:35.683Z,3.73
2019-05-28T20:15:09.624Z,3.87
2019-05-28T20:17:38.351Z,3.97
2019-05-28T20:20:07.682Z,4.10
2019-05-28T20:22:36.378Z,4.13
2019-05-28T20:25:08.731Z,4.37
2019-05-28T20:27:37.483Z,4.47
2019-05-28T20:30:09.405Z,4.43
2019-05-28T20:32:38.220Z,3.73
2019-05-28T20:35:09.661Z,4.47
2019-05-28T20:37:38.428Z,4.10
2019-05-28T20:40:10.234Z,4.20
2019-05-28T20:42:39.081Z,3.87
2019-05-28T20:45:09.159Z,4.00
2019-05-28T20:47:37.973Z,4.50
2019-05-28T20:50:09.420Z,4.30
2019-05-28T20:52:38.268Z,3.70
2019-05-28T20:55:07.523Z,4.53
2019-05-28T20:57:36.147Z,4.40
2019-05-28T21:00:08.972Z,4.70
2019-05-28T21:02:37.749Z,4.27
2019-05-28T21:05:08.186Z,4.50
2019-05-28T21:07:36.900Z,4.57
2019-05-28T21:10:08.155Z,4.27
2019-05-28T21:12:43.772Z,4.67
2019-05-28T21:15:10.766Z,4.50
2019-05-28T21:17:39.508Z,5.53
2019-05-28T21:20:08.643Z,5.67
2019-05-28T21:22:37.307Z,5.13
2019-05-28T21:25:06.705Z,5.53
2019-05-28T21:27:35.484Z,5.20
2019-05-28T21:30:06.245Z,4.70
2019-05-28T21:32:34.904Z,5.03
2019-05-28T21:35:04.346Z,4.90
2019-05-28T21:37:33.080Z,5.40
2019-05-28T21:40:02.146Z,5.30
2019-05-28T21:42:30.820Z,5.10
2019-05-28T21:45:00.153Z,5.30
2019-05-28T21:47:28.925Z,5.67
2019-05-28T21:49:59.397Z,5.20
2019-05-28T21:52:28.108Z,5.20
2019-05-28T21:54:57.207Z,4.73
2019-05-28T21:57:26.231Z,5.30
2019-05-28T21:59:55.676Z,4.93
2019-05-28T22:02:24.525Z,5.27
2019-05-28T22:04:53.083Z,5.43
2019-05-28T22:07:21.798Z,5.20
2019-05-28T22:09:50.440Z,4.93
2019-05-28T22:12:19.089Z,5.00
2019-05-28T22:14:47.637Z,5.50
2019-05-28T22:17:16.227Z,5.30
2019-05-28T22:19:44.869Z,6.10
2019-05-28T22:22:13.465Z,5.23
2019-05-28T22:24:42.031Z,4.97
2019-05-28T22:27:10.892Z,5.93
2019-05-28T22:29:39.462Z,4.70
2019-05-28T22:32:08.703Z,5.13
2019-05-28T22:34:37.259Z,4.67
2019-05-28T22:37:05.948Z,4.43
2019-05-28T22:39:34.577Z,5.03
2019-05-28T22:42:03.816Z,4.77
2019-05-28T22:44:32.519Z,4.57
2019-05-28T22:47:01.554Z,4.87
2019-05-28T22:49:30.131Z,4.87
2019-05-28T22:51:59.718Z,5.83
2019-05-28T22:54:28.745Z,5.13
2019-05-28T22:56:57.997Z,5.10
2019-05-28T22:59:26.581Z,5.27
2019-05-28T23:01:55.146Z,5.33
2019-05-28T23:04:23.725Z,5.33
2019-05-28T23:06:52.606Z,5.53
2019-05-28T23:09:21.210Z,5.30
2019-05-28T23:11:50.105Z,5.87
2019-05-28T23:14:18.978Z,5.27
2019-05-28T23:16:47.547Z,5.97
2019-05-28T23:19:16.130Z,5.20
2019-05-28T23:21:44.706Z,5.77
2019-05-28T23:24:13.290Z,5.13
2019-05-28T23:26:42.232Z,5.10
2019-05-28T23:29:11.920Z,5.80
2019-05-28T23:31:40.591Z,5.67
2019-05-28T23:34:10.236Z,5.57
2019-05-28T23:36:38.934Z,5.63
2019-05-28T23:39:08.979Z,6.50
2019-05-28T23:41:37.783Z,6.27
2019-05-28T23:44:07.482Z,6.27
2019-05-28T23:46:36.126Z,6.03
2019-05-28T23:49:04.771Z,6.10
2019-05-28T23:51:33.332Z,5.87
2019-05-28T23:54:01.919Z,6.17
2019-05-28T23:56:30.490Z,6.27
2019-05-28T23:58:59.395Z,6.33
